Hendley, Nebraska
Current Conditions -  °F | °C
As of 4:53 AM on Friday 24 Oct 2014 (Local Time) from KMCK Reporting Station
Haze Haze  
Wind Chill: 51°   Ceiling: Unl
Heat Index: 51°   Visibility: 6mi
Dew Point: 49°   Wind: 3mph
Humidity: 92%   Direction: 250°WSW
Pressure: 30"   Gusts: NA
Location:  40.13°N, 99.97°W
Report Text: KMCK 240953Z AUTO 25003KT 6SM BR CLR 11/09 A3000 RMK AO2 SLP146 T01060094 $
Loading
Personal Weather Stations






























Interactive Weather Map
Tropical Storm Tracking
New forecast layout! Learn more

10-Day Weather Forecast

Advertisements
Track Severe Weather on mobile